sensor_id;sensor_type;location;lat;lon;timestamp;temperature;humidity
6373;DHT22;3219;51.362;7.074;2023-04-24T00:02:21;11.00;99.90
6373;DHT22;3219;51.362;7.074;2023-04-24T00:04:48;11.00;99.90
6373;DHT22;3219;51.362;7.074;2023-04-24T00:07:15;10.90;99.90
6373;DHT22;3219;51.362;7.074;2023-04-24T00:09:42;10.80;99.90
6373;DHT22;3219;51.362;7.074;2023-04-24T00:12:09;10.80;99.90
6373;DHT22;3219;51.362;7.074;2023-04-24T00:14:36;10.80;99.90
6373;DHT22;3219;51.362;7.074;2023-04-24T00:17:04;10.80;99.90
6373;DHT22;3219;51.362;7.074;2023-04-24T00:19:31;10.70;99.90
6373;DHT22;3219;51.362;7.074;2023-04-24T00:21:58;10.60;99.90
6373;DHT22;3219;51.362;7.074;2023-04-24T00:24:25;10.60;99.90
6373;DHT22;3219;51.362;7.074;2023-04-24T00:26:51;10.40;99.90
6373;DHT22;3219;51.362;7.074;2023-04-24T00:29:18;10.40;99.90
6373;DHT22;3219;51.362;7.074;2023-04-24T00:31:45;10.40;99.90
6373;DHT22;3219;51.362;7.074;2023-04-24T00:34:13;10.40;99.90
6373;DHT22;3219;51.362;7.074;2023-04-24T00:36:40;10.30;99.90
6373;DHT22;3219;51.362;7.074;2023-04-24T00:39:07;10.30;99.90
6373;DHT22;3219;51.362;7.074;2023-04-24T00:41:34;10.30;99.90
6373;DHT22;3219;51.362;7.074;2023-04-24T00:44:01;10.30;99.90
6373;DHT22;3219;51.362;7.074;2023-04-24T00:46:28;10.30;99.90
6373;DHT22;3219;51.362;7.074;2023-04-24T00:48:56;10.20;99.90
6373;DHT22;3219;51.362;7.074;2023-04-24T00:51:24;10.20;99.90
6373;DHT22;3219;51.362;7.074;2023-04-24T00:53:51;10.10;99.90
6373;DHT22;3219;51.362;7.074;2023-04-24T00:56:18;10.10;99.90
6373;DHT22;3219;51.362;7.074;2023-04-24T00:58:45;10.10;99.90
6373;DHT22;3219;51.362;7.074;2023-04-24T01:01:12;10.10;99.90
6373;DHT22;3219;51.362;7.074;2023-04-24T01:03:40;10.10;99.90
6373;DHT22;3219;51.362;7.074;2023-04-24T01:06:07;10.00;99.90
6373;DHT22;3219;51.362;7.074;2023-04-24T01:08:36;10.00;99.90
6373;DHT22;3219;51.362;7.074;2023-04-24T01:11:04;10.00;99.90
6373;DHT22;3219;51.362;7.074;2023-04-24T01:13:31;10.00;99.90
6373;DHT22;3219;51.362;7.074;2023-04-24T01:15:59;10.00;99.90
6373;DHT22;3219;51.362;7.074;2023-04-24T01:18:26;10.00;99.90
6373;DHT22;3219;51.362;7.074;2023-04-24T01:20:55;10.00;99.90
6373;DHT22;3219;51.362;7.074;2023-04-24T01:23:24;10.00;99.90
6373;DHT22;3219;51.362;7.074;2023-04-24T01:25:52;10.00;99.90
6373;DHT22;3219;51.362;7.074;2023-04-24T01:28:19;10.10;99.90
6373;DHT22;3219;51.362;7.074;2023-04-24T01:30:46;10.10;99.90
6373;DHT22;3219;51.362;7.074;2023-04-24T01:33:13;10.00;99.90
6373;DHT22;3219;51.362;7.074;2023-04-24T01:35:40;10.10;99.90
6373;DHT22;3219;51.362;7.074;2023-04-24T01:38:06;10.00;99.90
6373;DHT22;3219;51.362;7.074;2023-04-24T01:40:34;10.00;99.90
6373;DHT22;3219;51.362;7.074;2023-04-24T01:43:02;10.00;99.90
6373;DHT22;3219;51.362;7.074;2023-04-24T01:45:28;10.00;99.90
6373;DHT22;3219;51.362;7.074;2023-04-24T01:47:55;9.90;99.90
6373;DHT22;3219;51.362;7.074;2023-04-24T01:50:22;9.90;99.90
6373;DHT22;3219;51.362;7.074;2023-04-24T01:52:49;9.80;99.90
6373;DHT22;3219;51.362;7.074;2023-04-24T01:55:16;9.70;99.90
6373;DHT22;3219;51.362;7.074;2023-04-24T01:57:44;9.60;99.90
6373;DHT22;3219;51.362;7.074;2023-04-24T02:00:11;9.50;99.90
6373;DHT22;3219;51.362;7.074;2023-04-24T02:02:39;9.50;99.90
6373;DHT22;3219;51.362;7.074;2023-04-24T02:05:07;9.40;99.90
6373;DHT22;3219;51.362;7.074;2023-04-24T02:07:34;9.40;99.90
6373;DHT22;3219;51.362;7.074;2023-04-24T02:10:01;9.30;99.90
6373;DHT22;3219;51.362;7.074;2023-04-24T02:12:29;9.30;99.90
6373;DHT22;3219;51.362;7.074;2023-04-24T02:14:57;9.30;99.90
6373;DHT22;3219;51.362;7.074;2023-04-24T02:17:24;9.20;99.90
6373;DHT22;3219;51.362;7.074;2023-04-24T02:19:51;9.20;99.90
6373;DHT22;3219;51.362;7.074;2023-04-24T02:22:18;9.20;99.90
6373;DHT22;3219;51.362;7.074;2023-04-24T02:24:45;9.20;99.90
6373;DHT22;3219;51.362;7.074;2023-04-24T02:27:12;9.10;99.90
6373;DHT22;3219;51.362;7.074;2023-04-24T02:29:40;9.10;99.90
6373;DHT22;3219;51.362;7.074;2023-04-24T02:32:08;9.10;99.90
6373;DHT22;3219;51.362;7.074;2023-04-24T02:34:37;9.10;99.90
6373;DHT22;3219;51.362;7.074;2023-04-24T02:37:04;9.10;99.90
6373;DHT22;3219;51.362;7.074;2023-04-24T02:39:31;9.10;99.90
6373;DHT22;3219;51.362;7.074;2023-04-24T02:41:58;9.10;99.90
6373;DHT22;3219;51.362;7.074;2023-04-24T02:44:25;9.10;99.90
6373;DHT22;3219;51.362;7.074;2023-04-24T02:46:52;9.10;99.90
6373;DHT22;3219;51.362;7.074;2023-04-24T02:49:20;9.20;99.90
6373;DHT22;3219;51.362;7.074;2023-04-24T02:51:46;9.20;99.90
6373;DHT22;3219;51.362;7.074;2023-04-24T02:54:13;9.20;99.90
6373;DHT22;3219;51.362;7.074;2023-04-24T02:56:40;9.30;99.90
6373;DHT22;3219;51.362;7.074;2023-04-24T02:59:07;9.30;99.90
6373;DHT22;3219;51.362;7.074;2023-04-24T03:01:33;9.40;99.90
6373;DHT22;3219;51.362;7.074;2023-04-24T03:04:00;9.40;99.90
6373;DHT22;3219;51.362;7.074;2023-04-24T03:06:28;9.40;99.90
6373;DHT22;3219;51.362;7.074;2023-04-24T03:08:56;9.40;99.90
6373;DHT22;3219;51.362;7.074;2023-04-24T03:11:23;9.40;99.90
6373;DHT22;3219;51.362;7.074;2023-04-24T03:13:50;9.40;99.90
6373;DHT22;3219;51.362;7.074;2023-04-24T03:16:17;9.50;99.90
6373;DHT22;3219;51.362;7.074;2023-04-24T03:18:44;9.50;99.90
6373;DHT22;3219;51.362;7.074;2023-04-24T03:21:11;9.50;99.90
6373;DHT22;3219;51.362;7.074;2023-04-24T03:23:39;9.50;99.90
6373;DHT22;3219;51.362;7.074;2023-04-24T03:26:06;9.50;99.90
6373;DHT22;3219;51.362;7.074;2023-04-24T03:28:33;9.50;99.90
6373;DHT22;3219;51.362;7.074;2023-04-24T03:30:59;9.50;99.90
6373;DHT22;3219;51.362;7.074;2023-04-24T03:33:26;9.50;99.90
6373;DHT22;3219;51.362;7.074;2023-04-24T03:35:53;9.50;99.90
6373;DHT22;3219;51.362;7.074;2023-04-24T03:38:20;9.50;99.90
6373;DHT22;3219;51.362;7.074;2023-04-24T03:40:48;9.40;99.90
6373;DHT22;3219;51.362;7.074;2023-04-24T03:43:14;9.40;99.90
6373;DHT22;3219;51.362;7.074;2023-04-24T03:45:41;9.30;99.90
6373;DHT22;3219;51.362;7.074;2023-04-24T03:48:08;9.30;99.90
6373;DHT22;3219;51.362;7.074;2023-04-24T03:50:35;9.40;99.90
6373;DHT22;3219;51.362;7.074;2023-04-24T03:53:01;9.40;99.90
6373;DHT22;3219;51.362;7.074;2023-04-24T03:55:29;9.40;99.90
6373;DHT22;3219;51.362;7.074;2023-04-24T03:57:57;9.40;99.90
6373;DHT22;3219;51.362;7.074;2023-04-24T04:00:24;9.50;99.90
6373;DHT22;3219;51.362;7.074;2023-04-24T04:02:51;9.50;99.90
6373;DHT22;3219;51.362;7.074;2023-04-24T04:05:18;9.40;99.90
6373;DHT22;3219;51.362;7.074;2023-04-24T04:07:45;9.50;99.90
6373;DHT22;3219;51.362;7.074;2023-04-24T04:10:11;9.50;99.90
6373;DHT22;3219;51.362;7.074;2023-04-24T04:12:38;9.50;99.90
6373;DHT22;3219;51.362;7.074;2023-04-24T04:15:07;9.50;99.90
6373;DHT22;3219;51.362;7.074;2023-04-24T04:17:34;9.40;99.90
6373;DHT22;3219;51.362;7.074;2023-04-24T04:20:00;9.40;99.90
6373;DHT22;3219;51.362;7.074;2023-04-24T04:22:31;9.40;99.90
6373;DHT22;3219;51.362;7.074;2023-04-24T04:24:58;9.30;99.90
6373;DHT22;3219;51.362;7.074;2023-04-24T04:27:24;9.40;99.90
6373;DHT22;3219;51.362;7.074;2023-04-24T04:29:52;9.40;99.90
6373;DHT22;3219;51.362;7.074;2023-04-24T04:32:20;9.40;99.90
6373;DHT22;3219;51.362;7.074;2023-04-24T04:34:47;9.50;99.90
6373;DHT22;3219;51.362;7.074;2023-04-24T04:37:14;9.50;99.90
6373;DHT22;3219;51.362;7.074;2023-04-24T04:39:41;9.40;99.90
6373;DHT22;3219;51.362;7.074;2023-04-24T04:42:08;9.40;99.90
6373;DHT22;3219;51.362;7.074;2023-04-24T04:44:35;9.40;99.90
6373;DHT22;3219;51.362;7.074;2023-04-24T04:47:04;9.40;99.90
6373;DHT22;3219;51.362;7.074;2023-04-24T04:49:32;9.30;99.90
6373;DHT22;3219;51.362;7.074;2023-04-24T04:51:59;9.30;99.90
6373;DHT22;3219;51.362;7.074;2023-04-24T04:54:26;9.30;99.90
6373;DHT22;3219;51.362;7.074;2023-04-24T04:56:52;9.30;99.90
6373;DHT22;3219;51.362;7.074;2023-04-24T04:59:19;9.30;99.90
6373;DHT22;3219;51.362;7.074;2023-04-24T05:01:46;9.30;99.90
6373;DHT22;3219;51.362;7.074;2023-04-24T05:04:13;9.30;99.90
6373;DHT22;3219;51.362;7.074;2023-04-24T05:06:41;9.30;99.90
6373;DHT22;3219;51.362;7.074;2023-04-24T05:09:07;9.30;99.90
6373;DHT22;3219;51.362;7.074;2023-04-24T05:11:34;9.30;99.90
6373;DHT22;3219;51.362;7.074;2023-04-24T05:14:01;9.30;99.90
6373;DHT22;3219;51.362;7.074;2023-04-24T05:16:28;9.30;99.90
6373;DHT22;3219;51.362;7.074;2023-04-24T05:18:54;9.30;99.90
6373;DHT22;3219;51.362;7.074;2023-04-24T05:21:21;9.30;99.90
6373;DHT22;3219;51.362;7.074;2023-04-24T05:23:49;9.20;99.90
6373;DHT22;3219;51.362;7.074;2023-04-24T05:26:16;9.20;99.90
6373;DHT22;3219;51.362;7.074;2023-04-24T05:28:43;9.20;99.90
6373;DHT22;3219;51.362;7.074;2023-04-24T05:31:10;9.20;99.90
6373;DHT22;3219;51.362;7.074;2023-04-24T05:33:37;9.20;99.90
6373;DHT22;3219;51.362;7.074;2023-04-24T05:36:06;9.20;99.90
6373;DHT22;3219;51.362;7.074;2023-04-24T05:38:33;9.20;99.90
6373;DHT22;3219;51.362;7.074;2023-04-24T05:41:01;9.10;99.90
6373;DHT22;3219;51.362;7.074;2023-04-24T05:43:28;9.10;99.90
6373;DHT22;3219;51.362;7.074;2023-04-24T05:45:54;9.10;99.90
6373;DHT22;3219;51.362;7.074;2023-04-24T05:48:21;9.10;99.90
6373;DHT22;3219;51.362;7.074;2023-04-24T05:50:48;9.10;99.90
6373;DHT22;3219;51.362;7.074;2023-04-24T05:53:15;9.00;99.90
6373;DHT22;3219;51.362;7.074;2023-04-24T05:55:41;9.10;99.90
6373;DHT22;3219;51.362;7.074;2023-04-24T05:58:09;9.10;99.90
6373;DHT22;3219;51.362;7.074;2023-04-24T06:00:36;9.00;99.90
6373;DHT22;3219;51.362;7.074;2023-04-24T06:03:05;9.00;99.90
6373;DHT22;3219;51.362;7.074;2023-04-24T06:05:32;8.90;99.90
6373;DHT22;3219;51.362;7.074;2023-04-24T06:07:58;9.00;99.90
6373;DHT22;3219;51.362;7.074;2023-04-24T06:10:25;9.00;99.90
6373;DHT22;3219;51.362;7.074;2023-04-24T06:12:52;8.90;99.90
6373;DHT22;3219;51.362;7.074;2023-04-24T06:15:22;8.90;99.90
6373;DHT22;3219;51.362;7.074;2023-04-24T06:17:49;8.80;99.90
6373;DHT22;3219;51.362;7.074;2023-04-24T06:20:16;8.90;99.90
6373;DHT22;3219;51.362;7.074;2023-04-24T06:22:43;8.90;99.90
6373;DHT22;3219;51.362;7.074;2023-04-24T06:25:10;8.90;99.90
6373;DHT22;3219;51.362;7.074;2023-04-24T06:27:36;9.00;99.90
6373;DHT22;3219;51.362;7.074;2023-04-24T06:30:04;8.90;99.90
6373;DHT22;3219;51.362;7.074;2023-04-24T06:32:32;9.00;99.90
6373;DHT22;3219;51.362;7.074;2023-04-24T06:34:59;9.00;99.90
6373;DHT22;3219;51.362;7.074;2023-04-24T06:37:25;9.10;99.90
6373;DHT22;3219;51.362;7.074;2023-04-24T06:39:52;9.10;99.90
6373;DHT22;3219;51.362;7.074;2023-04-24T06:42:19;9.20;99.90
6373;DHT22;3219;51.362;7.074;2023-04-24T06:44:47;9.20;99.90
6373;DHT22;3219;51.362;7.074;2023-04-24T06:47:14;9.30;99.90
6373;DHT22;3219;51.362;7.074;2023-04-24T06:49:42;9.20;99.90
6373;DHT22;3219;51.362;7.074;2023-04-24T06:52:09;9.30;99.90
6373;DHT22;3219;51.362;7.074;2023-04-24T06:54:35;9.20;99.90
6373;DHT22;3219;51.362;7.074;2023-04-24T06:57:02;9.30;99.90
6373;DHT22;3219;51.362;7.074;2023-04-24T06:59:29;9.30;99.90
6373;DHT22;3219;51.362;7.074;2023-04-24T07:01:56;9.30;99.90
6373;DHT22;3219;51.362;7.074;2023-04-24T07:04:23;9.30;99.90
6373;DHT22;3219;51.362;7.074;2023-04-24T07:06:52;9.30;99.90
6373;DHT22;3219;51.362;7.074;2023-04-24T07:09:21;9.20;99.90
6373;DHT22;3219;51.362;7.074;2023-04-24T07:11:49;9.20;99.90
6373;DHT22;3219;51.362;7.074;2023-04-24T07:14:15;9.20;99.90
6373;DHT22;3219;51.362;7.074;2023-04-24T07:16:42;9.20;99.90
6373;DHT22;3219;51.362;7.074;2023-04-24T07:19:10;9.20;99.90
6373;DHT22;3219;51.362;7.074;2023-04-24T07:21:37;9.10;99.90
6373;DHT22;3219;51.362;7.074;2023-04-24T07:24:05;9.10;99.90
6373;DHT22;3219;51.362;7.074;2023-04-24T07:26:34;9.10;99.90
6373;DHT22;3219;51.362;7.074;2023-04-24T07:29:01;9.00;99.90
6373;DHT22;3219;51.362;7.074;2023-04-24T07:31:28;9.10;99.90
6373;DHT22;3219;51.362;7.074;2023-04-24T07:33:55;9.00;99.90
6373;DHT22;3219;51.362;7.074;2023-04-24T07:36:23;9.00;99.90
6373;DHT22;3219;51.362;7.074;2023-04-24T07:38:51;9.10;99.90
6373;DHT22;3219;51.362;7.074;2023-04-24T07:41:19;9.10;99.90
6373;DHT22;3219;51.362;7.074;2023-04-24T07:43:47;9.20;99.90
6373;DHT22;3219;51.362;7.074;2023-04-24T07:46:13;9.30;99.90
6373;DHT22;3219;51.362;7.074;2023-04-24T07:48:40;9.30;99.90
6373;DHT22;3219;51.362;7.074;2023-04-24T07:51:07;9.20;99.90
6373;DHT22;3219;51.362;7.074;2023-04-24T07:53:35;9.20;99.90
6373;DHT22;3219;51.362;7.074;2023-04-24T07:56:02;9.20;99.90
6373;DHT22;3219;51.362;7.074;2023-04-24T07:58:30;9.20;99.90
6373;DHT22;3219;51.362;7.074;2023-04-24T08:00:57;9.20;99.90
6373;DHT22;3219;51.362;7.074;2023-04-24T08:03:23;9.30;99.90
6373;DHT22;3219;51.362;7.074;2023-04-24T08:05:50;9.30;99.90
6373;DHT22;3219;51.362;7.074;2023-04-24T08:08:17;9.30;99.90
6373;DHT22;3219;51.362;7.074;2023-04-24T08:10:44;9.30;99.90
6373;DHT22;3219;51.362;7.074;2023-04-24T08:13:11;9.40;99.90
6373;DHT22;3219;51.362;7.074;2023-04-24T08:15:39;9.30;99.90
6373;DHT22;3219;51.362;7.074;2023-04-24T08:18:06;9.30;99.90
6373;DHT22;3219;51.362;7.074;2023-04-24T08:20:33;9.20;99.90
6373;DHT22;3219;51.362;7.074;2023-04-24T08:23:00;9.00;99.90
6373;DHT22;3219;51.362;7.074;2023-04-24T08:25:26;8.90;99.90
6373;DHT22;3219;51.362;7.074;2023-04-24T08:27:53;8.80;99.90
6373;DHT22;3219;51.362;7.074;2023-04-24T08:30:20;8.90;99.90
6373;DHT22;3219;51.362;7.074;2023-04-24T08:32:49;8.80;99.90
6373;DHT22;3219;51.362;7.074;2023-04-24T08:35:15;8.80;99.90
6373;DHT22;3219;51.362;7.074;2023-04-24T08:37:42;8.80;99.90
6373;DHT22;3219;51.362;7.074;2023-04-24T08:40:12;8.70;99.90
6373;DHT22;3219;51.362;7.074;2023-04-24T08:42:41;8.70;99.90
6373;DHT22;3219;51.362;7.074;2023-04-24T08:45:09;8.60;99.90
6373;DHT22;3219;51.362;7.074;2023-04-24T08:47:38;8.60;99.90
6373;DHT22;3219;51.362;7.074;2023-04-24T08:50:07;8.50;99.90
6373;DHT22;3219;51.362;7.074;2023-04-24T08:52:35;8.50;99.90
6373;DHT22;3219;51.362;7.074;2023-04-24T08:55:02;8.50;99.90
6373;DHT22;3219;51.362;7.074;2023-04-24T08:57:29;8.60;99.90
6373;DHT22;3219;51.362;7.074;2023-04-24T08:59:58;8.70;99.90
6373;DHT22;3219;51.362;7.074;2023-04-24T09:02:25;8.70;99.90
6373;DHT22;3219;51.362;7.074;2023-04-24T09:04:53;8.80;99.90
6373;DHT22;3219;51.362;7.074;2023-04-24T09:07:22;8.80;99.90
6373;DHT22;3219;51.362;7.074;2023-04-24T09:09:51;8.90;99.90
6373;DHT22;3219;51.362;7.074;2023-04-24T09:12:18;9.00;99.90
6373;DHT22;3219;51.362;7.074;2023-04-24T09:14:46;9.10;99.90
6373;DHT22;3219;51.362;7.074;2023-04-24T09:17:13;9.20;99.90
6373;DHT22;3219;51.362;7.074;2023-04-24T09:19:40;9.20;99.90
6373;DHT22;3219;51.362;7.074;2023-04-24T09:22:07;9.20;99.90
6373;DHT22;3219;51.362;7.074;2023-04-24T09:24:35;9.30;99.90
6373;DHT22;3219;51.362;7.074;2023-04-24T09:27:02;9.20;99.90
6373;DHT22;3219;51.362;7.074;2023-04-24T09:29:30;9.20;99.90
6373;DHT22;3219;51.362;7.074;2023-04-24T09:31:58;9.20;99.90
6373;DHT22;3219;51.362;7.074;2023-04-24T09:34:26;9.10;99.90
6373;DHT22;3219;51.362;7.074;2023-04-24T09:36:54;9.10;99.90
6373;DHT22;3219;51.362;7.074;2023-04-24T09:39:21;8.90;99.90
6373;DHT22;3219;51.362;7.074;2023-04-24T09:41:50;8.90;99.90
6373;DHT22;3219;51.362;7.074;2023-04-24T09:44:17;8.90;99.90
6373;DHT22;3219;51.362;7.074;2023-04-24T09:46:49;8.90;99.90
6373;DHT22;3219;51.362;7.074;2023-04-24T09:49:21;8.80;99.90
6373;DHT22;3219;51.362;7.074;2023-04-24T09:51:48;8.80;99.90
6373;DHT22;3219;51.362;7.074;2023-04-24T09:54:16;8.80;99.90
6373;DHT22;3219;51.362;7.074;2023-04-24T09:56:44;8.70;99.90
6373;DHT22;3219;51.362;7.074;2023-04-24T09:59:13;8.60;99.90
6373;DHT22;3219;51.362;7.074;2023-04-24T10:01:40;8.60;99.90
6373;DHT22;3219;51.362;7.074;2023-04-24T10:04:20;8.60;99.90
6373;DHT22;3219;51.362;7.074;2023-04-24T10:06:47;8.60;99.90
6373;DHT22;3219;51.362;7.074;2023-04-24T10:09:15;8.50;99.90
6373;DHT22;3219;51.362;7.074;2023-04-24T10:11:44;8.50;99.90
6373;DHT22;3219;51.362;7.074;2023-04-24T10:14:15;8.40;99.90
6373;DHT22;3219;51.362;7.074;2023-04-24T10:16:43;8.40;99.90
6373;DHT22;3219;51.362;7.074;2023-04-24T10:19:12;8.50;99.90
6373;DHT22;3219;51.362;7.074;2023-04-24T10:21:41;8.50;99.90
6373;DHT22;3219;51.362;7.074;2023-04-24T10:24:12;8.50;99.90
6373;DHT22;3219;51.362;7.074;2023-04-24T10:26:40;8.60;99.90
6373;DHT22;3219;51.362;7.074;2023-04-24T10:29:08;8.60;99.90
6373;DHT22;3219;51.362;7.074;2023-04-24T10:31:39;8.60;99.90
6373;DHT22;3219;51.362;7.074;2023-04-24T10:34:08;8.50;99.90
6373;DHT22;3219;51.362;7.074;2023-04-24T10:36:38;8.60;99.90
6373;DHT22;3219;51.362;7.074;2023-04-24T10:39:09;8.70;99.90
6373;DHT22;3219;51.362;7.074;2023-04-24T10:41:38;8.90;99.90
6373;DHT22;3219;51.362;7.074;2023-04-24T10:44:06;8.90;99.90
6373;DHT22;3219;51.362;7.074;2023-04-24T10:46:33;9.00;99.90
6373;DHT22;3219;51.362;7.074;2023-04-24T10:49:03;9.10;99.90
6373;DHT22;3219;51.362;7.074;2023-04-24T10:51:45;9.00;99.90
6373;DHT22;3219;51.362;7.074;2023-04-24T10:54:36;9.00;99.90
6373;DHT22;3219;51.362;7.074;2023-04-24T10:57:27;9.10;99.90
6373;DHT22;3219;51.362;7.074;2023-04-24T11:00:14;9.10;99.90
6373;DHT22;3219;51.362;7.074;2023-04-24T11:02:41;9.20;99.90
6373;DHT22;3219;51.362;7.074;2023-04-24T11:05:16;9.30;99.90
6373;DHT22;3219;51.362;7.074;2023-04-24T11:08:12;9.40;99.90
6373;DHT22;3219;51.362;7.074;2023-04-24T11:10:40;9.50;99.90
6373;DHT22;3219;51.362;7.074;2023-04-24T11:13:07;9.50;99.90
6373;DHT22;3219;51.362;7.074;2023-04-24T11:15:34;9.60;99.90
6373;DHT22;3219;51.362;7.074;2023-04-24T11:18:01;9.60;99.90
6373;DHT22;3219;51.362;7.074;2023-04-24T11:20:30;9.70;99.90
6373;DHT22;3219;51.362;7.074;2023-04-24T11:23:03;9.70;99.90
6373;DHT22;3219;51.362;7.074;2023-04-24T11:25:30;9.80;99.90
6373;DHT22;3219;51.362;7.074;2023-04-24T11:28:03;9.90;99.90
6373;DHT22;3219;51.362;7.074;2023-04-24T11:30:31;9.90;99.90
6373;DHT22;3219;51.362;7.074;2023-04-24T11:33:02;9.90;99.90
6373;DHT22;3219;51.362;7.074;2023-04-24T11:35:35;9.90;99.90
6373;DHT22;3219;51.362;7.074;2023-04-24T11:38:03;9.90;99.90
6373;DHT22;3219;51.362;7.074;2023-04-24T11:40:30;9.90;99.90
6373;DHT22;3219;51.362;7.074;2023-04-24T11:43:00;9.90;99.90
6373;DHT22;3219;51.362;7.074;2023-04-24T11:45:28;9.90;99.90
6373;DHT22;3219;51.362;7.074;2023-04-24T11:47:55;9.90;99.90
6373;DHT22;3219;51.362;7.074;2023-04-24T11:50:25;10.10;99.90
6373;DHT22;3219;51.362;7.074;2023-04-24T11:52:54;10.30;99.90
6373;DHT22;3219;51.362;7.074;2023-04-24T11:55:26;10.30;99.90
6373;DHT22;3219;51.362;7.074;2023-04-24T11:57:54;10.40;99.90
6373;DHT22;3219;51.362;7.074;2023-04-24T12:00:23;10.50;99.90
6373;DHT22;3219;51.362;7.074;2023-04-24T12:02:51;10.60;99.90
6373;DHT22;3219;51.362;7.074;2023-04-24T12:05:21;10.60;99.90
6373;DHT22;3219;51.362;7.074;2023-04-24T12:07:48;10.70;99.90
6373;DHT22;3219;51.362;7.074;2023-04-24T12:10:21;10.90;99.90
6373;DHT22;3219;51.362;7.074;2023-04-24T12:12:48;11.00;99.90
6373;DHT22;3219;51.362;7.074;2023-04-24T12:15:17;11.10;99.90
6373;DHT22;3219;51.362;7.074;2023-04-24T12:17:45;11.20;99.90
6373;DHT22;3219;51.362;7.074;2023-04-24T12:20:13;11.20;99.90
6373;DHT22;3219;51.362;7.074;2023-04-24T12:22:44;11.20;99.90
6373;DHT22;3219;51.362;7.074;2023-04-24T12:25:12;11.00;99.90
6373;DHT22;3219;51.362;7.074;2023-04-24T12:27:40;10.90;99.90
6373;DHT22;3219;51.362;7.074;2023-04-24T12:30:11;10.80;99.90
6373;DHT22;3219;51.362;7.074;2023-04-24T12:32:41;10.70;99.90
6373;DHT22;3219;51.362;7.074;2023-04-24T12:35:09;10.60;99.90
6373;DHT22;3219;51.362;7.074;2023-04-24T12:37:35;10.50;99.90
6373;DHT22;3219;51.362;7.074;2023-04-24T12:40:04;10.40;99.90
6373;DHT22;3219;51.362;7.074;2023-04-24T12:42:32;10.30;99.90
6373;DHT22;3219;51.362;7.074;2023-04-24T12:45:02;10.20;99.90
6373;DHT22;3219;51.362;7.074;2023-04-24T12:47:29;10.20;99.90
6373;DHT22;3219;51.362;7.074;2023-04-24T12:49:57;10.10;99.90
6373;DHT22;3219;51.362;7.074;2023-04-24T12:52:24;10.00;99.90
6373;DHT22;3219;51.362;7.074;2023-04-24T12:54:53;9.90;99.90
6373;DHT22;3219;51.362;7.074;2023-04-24T12:57:20;9.90;99.90
6373;DHT22;3219;51.362;7.074;2023-04-24T12:59:47;9.90;99.90
6373;DHT22;3219;51.362;7.074;2023-04-24T13:02:15;10.00;99.90
6373;DHT22;3219;51.362;7.074;2023-04-24T13:04:44;10.20;99.90
6373;DHT22;3219;51.362;7.074;2023-04-24T13:07:11;10.40;99.90
6373;DHT22;3219;51.362;7.074;2023-04-24T13:09:39;10.60;99.90
6373;DHT22;3219;51.362;7.074;2023-04-24T13:12:06;10.80;99.90
6373;DHT22;3219;51.362;7.074;2023-04-24T13:14:33;10.90;99.90
6373;DHT22;3219;51.362;7.074;2023-04-24T13:17:00;10.80;99.90
6373;DHT22;3219;51.362;7.074;2023-04-24T13:19:28;10.80;99.90
6373;DHT22;3219;51.362;7.074;2023-04-24T13:21:56;10.70;99.90
6373;DHT22;3219;51.362;7.074;2023-04-24T13:24:24;10.60;99.90
6373;DHT22;3219;51.362;7.074;2023-04-24T13:26:51;10.50;99.90
6373;DHT22;3219;51.362;7.074;2023-04-24T13:29:18;10.40;99.90
6373;DHT22;3219;51.362;7.074;2023-04-24T13:31:46;10.30;99.90
6373;DHT22;3219;51.362;7.074;2023-04-24T13:34:13;10.30;99.90
6373;DHT22;3219;51.362;7.074;2023-04-24T13:36:41;10.20;99.90
6373;DHT22;3219;51.362;7.074;2023-04-24T13:39:08;10.20;99.90
6373;DHT22;3219;51.362;7.074;2023-04-24T13:41:34;10.20;99.90
6373;DHT22;3219;51.362;7.074;2023-04-24T13:44:01;10.20;99.90
6373;DHT22;3219;51.362;7.074;2023-04-24T13:46:28;10.20;99.90
6373;DHT22;3219;51.362;7.074;2023-04-24T13:48:55;10.10;99.90
6373;DHT22;3219;51.362;7.074;2023-04-24T13:51:22;10.10;99.90
6373;DHT22;3219;51.362;7.074;2023-04-24T13:53:50;10.10;99.90
6373;DHT22;3219;51.362;7.074;2023-04-24T13:56:17;10.10;99.90
6373;DHT22;3219;51.362;7.074;2023-04-24T13:58:44;10.20;99.90
6373;DHT22;3219;51.362;7.074;2023-04-24T14:01:10;10.40;99.90
6373;DHT22;3219;51.362;7.074;2023-04-24T14:03:37;10.60;99.90
6373;DHT22;3219;51.362;7.074;2023-04-24T14:06:04;10.80;99.90
6373;DHT22;3219;51.362;7.074;2023-04-24T14:08:31;10.90;99.90
6373;DHT22;3219;51.362;7.074;2023-04-24T14:10:59;10.90;99.90
6373;DHT22;3219;51.362;7.074;2023-04-24T14:13:26;10.80;99.90
6373;DHT22;3219;51.362;7.074;2023-04-24T14:15:54;10.80;99.90
6373;DHT22;3219;51.362;7.074;2023-04-24T14:18:20;10.80;99.90
6373;DHT22;3219;51.362;7.074;2023-04-24T14:20:47;10.70;99.90
6373;DHT22;3219;51.362;7.074;2023-04-24T14:23:15;10.70;99.90
6373;DHT22;3219;51.362;7.074;2023-04-24T14:25:42;10.70;99.90
6373;DHT22;3219;51.362;7.074;2023-04-24T14:28:10;10.80;99.90
6373;DHT22;3219;51.362;7.074;2023-04-24T14:30:37;10.80;99.90
6373;DHT22;3219;51.362;7.074;2023-04-24T14:33:06;10.90;99.90
6373;DHT22;3219;51.362;7.074;2023-04-24T14:35:32;11.00;99.90
6373;DHT22;3219;51.362;7.074;2023-04-24T14:38:00;11.10;99.90
6373;DHT22;3219;51.362;7.074;2023-04-24T14:40:27;11.20;99.90
6373;DHT22;3219;51.362;7.074;2023-04-24T14:42:54;11.30;99.90
6373;DHT22;3219;51.362;7.074;2023-04-24T14:45:23;11.30;99.90
6373;DHT22;3219;51.362;7.074;2023-04-24T14:47:50;11.30;99.90
6373;DHT22;3219;51.362;7.074;2023-04-24T14:50:17;11.30;99.90
6373;DHT22;3219;51.362;7.074;2023-04-24T14:52:44;11.30;99.90
6373;DHT22;3219;51.362;7.074;2023-04-24T14:55:11;11.30;99.90
6373;DHT22;3219;51.362;7.074;2023-04-24T14:57:38;11.10;99.90
6373;DHT22;3219;51.362;7.074;2023-04-24T15:00:06;11.00;99.90
6373;DHT22;3219;51.362;7.074;2023-04-24T15:02:36;10.90;99.90
6373;DHT22;3219;51.362;7.074;2023-04-24T15:05:07;10.90;99.90
6373;DHT22;3219;51.362;7.074;2023-04-24T15:07:34;10.90;99.90
6373;DHT22;3219;51.362;7.074;2023-04-24T15:10:02;10.80;99.90
6373;DHT22;3219;51.362;7.074;2023-04-24T15:12:28;10.70;99.90
6373;DHT22;3219;51.362;7.074;2023-04-24T15:14:55;10.60;99.90
6373;DHT22;3219;51.362;7.074;2023-04-24T15:17:23;10.70;99.90
6373;DHT22;3219;51.362;7.074;2023-04-24T15:19:51;10.70;99.90
6373;DHT22;3219;51.362;7.074;2023-04-24T15:22:18;10.70;99.90
6373;DHT22;3219;51.362;7.074;2023-04-24T15:24:45;10.70;99.90
6373;DHT22;3219;51.362;7.074;2023-04-24T15:27:12;10.80;99.90
6373;DHT22;3219;51.362;7.074;2023-04-24T15:29:39;10.80;99.90
6373;DHT22;3219;51.362;7.074;2023-04-24T15:32:05;10.80;99.90
6373;DHT22;3219;51.362;7.074;2023-04-24T15:34:32;10.80;99.90
6373;DHT22;3219;51.362;7.074;2023-04-24T15:37:01;10.80;99.90
6373;DHT22;3219;51.362;7.074;2023-04-24T15:39:29;10.90;99.90
6373;DHT22;3219;51.362;7.074;2023-04-24T15:41:55;10.90;99.90
6373;DHT22;3219;51.362;7.074;2023-04-24T15:44:22;11.00;99.90
6373;DHT22;3219;51.362;7.074;2023-04-24T15:46:49;11.10;99.90
6373;DHT22;3219;51.362;7.074;2023-04-24T15:49:17;11.00;99.90
6373;DHT22;3219;51.362;7.074;2023-04-24T15:51:43;11.00;99.90
6373;DHT22;3219;51.362;7.074;2023-04-24T15:54:12;10.90;99.90
6373;DHT22;3219;51.362;7.074;2023-04-24T15:56:38;11.00;99.90
6373;DHT22;3219;51.362;7.074;2023-04-24T15:59:05;10.90;99.90
6373;DHT22;3219;51.362;7.074;2023-04-24T16:01:32;10.90;99.90
6373;DHT22;3219;51.362;7.074;2023-04-24T16:03:59;10.90;99.90
6373;DHT22;3219;51.362;7.074;2023-04-24T16:06:26;10.90;99.90
6373;DHT22;3219;51.362;7.074;2023-04-24T16:08:53;10.90;99.90
6373;DHT22;3219;51.362;7.074;2023-04-24T16:11:21;10.90;99.90
6373;DHT22;3219;51.362;7.074;2023-04-24T16:13:48;10.90;99.90
6373;DHT22;3219;51.362;7.074;2023-04-24T16:16:15;10.80;99.90